createdAt,value
2023-01-04T00:04:25.909Z,5.60
2023-01-04T00:09:33.000Z,5.40
2023-01-04T00:14:39.934Z,5.30
2023-01-04T00:19:46.726Z,5.40
2023-01-04T00:24:53.702Z,5.50
2023-01-04T00:30:00.545Z,5.70
2023-01-04T00:35:08.035Z,5.90
2023-01-04T00:40:15.243Z,6.00
2023-01-04T00:45:22.032Z,5.90
2023-01-04T00:50:29.028Z,6.00
2023-01-04T00:55:36.050Z,6.10
2023-01-04T01:00:42.993Z,6.10
2023-01-04T01:05:49.846Z,6.10
2023-01-04T01:10:57.684Z,6.10
2023-01-04T01:16:14.702Z,6.00
2023-01-04T01:21:25.509Z,5.90
2023-01-04T01:26:32.384Z,5.90
2023-01-04T01:31:39.462Z,6.00
2023-01-04T01:36:47.346Z,6.00
2023-01-04T01:41:54.263Z,6.00
2023-01-04T01:47:01.934Z,6.00
2023-01-04T01:52:24.703Z,5.70
2023-01-04T01:57:35.563Z,5.60
2023-01-04T02:02:56.122Z,5.40
2023-01-04T02:08:06.505Z,5.40
2023-01-04T02:13:19.650Z,5.60
2023-01-04T02:18:35.802Z,5.50
2023-01-04T02:24:04.990Z,5.60
2023-01-04T02:29:46.118Z,5.50
2023-01-04T02:35:03.156Z,5.70
2023-01-04T02:40:32.168Z,5.80
2023-01-04T02:45:43.371Z,5.70
2023-01-04T02:51:01.941Z,5.70
2023-01-04T02:56:18.808Z,5.70
2023-01-04T03:02:11.480Z,5.80
2023-01-04T03:07:49.865Z,5.80
2023-01-04T03:13:09.699Z,6.00
2023-01-04T03:18:28.876Z,6.00
2023-01-04T03:23:55.710Z,6.10
2023-01-04T03:29:24.262Z,6.10
2023-01-04T03:34:49.360Z,6.20
2023-01-04T03:40:46.826Z,6.20
2023-01-04T03:46:17.886Z,6.10
2023-01-04T03:51:28.301Z,6.10
2023-01-04T03:56:38.059Z,5.90
2023-01-04T04:01:46.151Z,5.90
2023-01-04T04:07:10.816Z,5.90
2023-01-04T04:12:17.498Z,5.70
2023-01-04T04:17:24.169Z,5.80
2023-01-04T04:22:30.859Z,5.80
2023-01-04T04:27:37.543Z,5.80
2023-01-04T04:32:44.269Z,5.80
2023-01-04T04:37:50.964Z,5.80
2023-01-04T04:42:57.574Z,5.90
2023-01-04T04:48:04.278Z,5.70
2023-01-04T04:53:10.967Z,5.70
2023-01-04T04:58:17.652Z,5.80
2023-01-04T05:03:24.366Z,5.70
2023-01-04T05:08:31.673Z,5.70
2023-01-04T05:13:38.454Z,5.70
2023-01-04T05:18:45.152Z,5.70
2023-01-04T05:23:51.778Z,5.80
2023-01-04T05:28:58.478Z,5.90
2023-01-04T05:34:05.160Z,5.80
2023-01-04T05:39:11.919Z,5.80
2023-01-04T05:44:18.624Z,5.70
2023-01-04T05:49:25.273Z,5.60
2023-01-04T05:54:31.932Z,5.70
2023-01-04T05:59:41.954Z,5.60
2023-01-04T06:04:51.558Z,5.70
2023-01-04T06:09:56.011Z,5.80
2023-01-04T06:15:03.282Z,5.80
2023-01-04T06:20:11.824Z,5.80
2023-01-04T06:25:19.893Z,5.80
2023-01-04T06:30:26.603Z,5.80
2023-01-04T06:35:33.351Z,5.80
2023-01-04T06:40:40.033Z,5.90
2023-01-04T06:45:46.753Z,5.90
2023-01-04T06:50:53.390Z,5.80
2023-01-04T06:56:00.079Z,5.80
2023-01-04T07:01:07.097Z,5.70
2023-01-04T07:06:14.404Z,5.70
2023-01-04T07:11:21.120Z,5.70
2023-01-04T07:16:27.782Z,5.80
2023-01-04T07:21:34.490Z,5.80
2023-01-04T07:26:41.231Z,6.00
2023-01-04T07:31:53.438Z,5.90
2023-01-04T07:37:00.635Z,5.90
2023-01-04T07:42:07.404Z,6.00
2023-01-04T07:47:14.211Z,5.90
2023-01-04T07:52:20.905Z,6.10
2023-01-04T07:57:27.593Z,6.00
2023-01-04T08:02:34.583Z,6.10
2023-01-04T08:07:42.014Z,6.00
2023-01-04T08:12:48.638Z,5.90
2023-01-04T08:17:56.829Z,5.90
2023-01-04T08:23:03.539Z,5.90
2023-01-04T08:28:10.295Z,5.80
2023-01-04T08:33:17.675Z,5.60
2023-01-04T08:38:58.721Z,5.40
2023-01-04T08:43:32.777Z,5.40
2023-01-04T08:48:39.767Z,5.50
2023-01-04T08:53:46.932Z,5.60
2023-01-04T08:58:53.608Z,5.60
2023-01-04T09:04:00.348Z,5.80
2023-01-04T09:09:07.394Z,6.00
2023-01-04T09:14:14.270Z,5.90
2023-01-04T09:19:22.406Z,5.90
2023-01-04T09:24:29.427Z,5.80
2023-01-04T09:29:36.110Z,5.80
2023-01-04T09:34:42.784Z,5.80
2023-01-04T09:39:49.462Z,5.80
2023-01-04T09:50:29.319Z,5.80
2023-01-04T09:55:49.843Z,5.90
2023-01-04T10:01:15.784Z,5.90
2023-01-04T10:06:22.879Z,5.90
2023-01-04T10:11:42.973Z,5.90
2023-01-04T10:17:14.427Z,6.20
2023-01-04T10:22:57.044Z,6.30
2023-01-04T10:28:40.966Z,6.30
2023-01-04T10:34:03.684Z,6.20
2023-01-04T10:39:28.572Z,6.30
2023-01-04T10:44:47.177Z,6.40
2023-01-04T10:50:00.542Z,6.30
2023-01-04T10:55:18.157Z,6.40
2023-01-04T11:00:28.968Z,6.50
2023-01-04T11:05:56.328Z,6.50
2023-01-04T11:11:22.701Z,6.60
2023-01-04T11:16:31.992Z,6.40
2023-01-04T11:21:42.696Z,6.60
2023-01-04T11:26:51.792Z,6.70
2023-01-04T11:32:39.419Z,6.60
2023-01-04T11:37:46.154Z,6.90
2023-01-04T11:43:19.950Z,6.80
2023-01-04T11:48:42.385Z,7.00
2023-01-04T11:53:54.952Z,6.90
2023-01-04T11:59:25.117Z,6.80
2023-01-04T12:04:32.498Z,6.90
2023-01-04T12:09:38.775Z,6.90
2023-01-04T12:14:51.410Z,7.40
2023-01-04T12:19:59.861Z,7.40
2023-01-04T12:25:11.392Z,7.30
2023-01-04T12:30:39.346Z,7.10
2023-01-04T12:36:22.847Z,7.20
2023-01-04T12:41:39.833Z,7.20
2023-01-04T12:47:04.326Z,7.20
2023-01-04T12:52:38.385Z,7.20
2023-01-04T12:57:29.523Z,7.30
2023-01-04T13:02:40.258Z,7.40
2023-01-04T13:07:56.379Z,7.40
2023-01-04T13:13:31.381Z,7.50
2023-01-04T13:18:45.704Z,7.50
2023-01-04T13:24:05.361Z,7.50
2023-01-04T13:29:21.747Z,7.70
2023-01-04T13:34:41.083Z,7.70
2023-01-04T13:39:53.009Z,7.70
2023-01-04T13:45:22.449Z,7.50
2023-01-04T13:50:37.546Z,7.60
2023-01-04T13:55:44.323Z,7.70
2023-01-04T14:00:57.851Z,7.40
2023-01-04T14:06:14.383Z,7.60
2023-01-04T14:11:51.723Z,7.50
2023-01-04T14:17:26.365Z,7.50
2023-01-04T14:22:43.052Z,7.30
2023-01-04T14:27:49.901Z,7.40
2023-01-04T14:33:06.515Z,7.30
2023-01-04T14:38:19.332Z,7.40
2023-01-04T14:43:38.497Z,7.20
2023-01-04T14:48:45.379Z,7.20
2023-01-04T14:53:52.522Z,7.10
2023-01-04T14:59:01.291Z,7.00
2023-01-04T15:04:08.661Z,6.90
2023-01-04T15:09:15.531Z,6.90
2023-01-04T15:14:22.247Z,6.90
2023-01-04T15:19:34.125Z,6.70
2023-01-04T15:24:37.659Z,6.60
2023-01-04T15:29:44.543Z,6.50
2023-01-04T15:34:54.335Z,6.30
2023-01-04T15:40:03.083Z,6.30
2023-01-04T15:45:10.055Z,6.30
2023-01-04T15:50:17.758Z,6.30
2023-01-04T15:55:24.833Z,6.30
2023-01-04T16:00:32.215Z,6.30
2023-01-04T16:05:38.853Z,6.50
2023-01-04T16:10:45.554Z,6.30
2023-01-04T16:15:52.381Z,6.30
2023-01-04T16:20:59.990Z,6.30
2023-01-04T16:26:13.371Z,6.40
2023-01-04T16:31:20.374Z,6.40
2023-01-04T16:36:27.346Z,6.50
2023-01-04T16:41:34.219Z,6.50
2023-01-04T16:46:42.855Z,6.50
2023-01-04T16:51:49.884Z,6.50
2023-01-04T16:56:58.132Z,6.50
2023-01-04T17:02:04.963Z,6.50
2023-01-04T17:07:11.744Z,6.60
2023-01-04T17:12:46.342Z,6.50
2023-01-04T17:17:26.816Z,6.50
2023-01-04T17:22:34.995Z,6.50
2023-01-04T17:27:41.723Z,6.50
2023-01-04T17:32:48.393Z,6.50
2023-01-04T17:37:55.129Z,6.50
2023-01-04T17:43:02.564Z,6.50
2023-01-04T17:48:09.443Z,6.40
2023-01-04T17:53:16.235Z,6.40
2023-01-04T17:58:23.551Z,6.40
2023-01-04T18:03:30.571Z,6.40
2023-01-04T18:08:37.449Z,6.40
2023-01-04T18:13:47.183Z,6.40
2023-01-04T18:18:55.269Z,6.40
2023-01-04T18:29:14.098Z,6.30
2023-01-04T18:34:21.363Z,6.40
2023-01-04T18:39:28.261Z,6.30
2023-01-04T18:44:35.969Z,6.30
2023-01-04T18:49:43.678Z,6.30
2023-01-04T18:54:50.515Z,6.30
2023-01-04T18:59:57.475Z,6.30
2023-01-04T19:05:05.038Z,6.30
2023-01-04T19:10:12.196Z,6.30
2023-01-04T19:15:20.088Z,6.30
2023-01-04T19:20:27.294Z,6.30
2023-01-04T19:25:34.129Z,6.20
2023-01-04T19:30:43.355Z,6.10
2023-01-04T19:35:50.728Z,6.20
2023-01-04T19:40:59.924Z,6.10
2023-01-04T19:46:12.270Z,6.20
2023-01-04T19:51:19.839Z,6.30
2023-01-04T19:56:27.114Z,6.10
2023-01-04T20:01:34.014Z,6.20
2023-01-04T20:06:41.140Z,6.30
2023-01-04T20:11:48.435Z,6.30
2023-01-04T20:16:55.918Z,6.20
2023-01-04T20:22:03.285Z,6.10
2023-01-04T20:27:10.884Z,6.20
2023-01-04T20:32:17.933Z,6.10
2023-01-04T20:37:24.858Z,6.00
2023-01-04T20:42:49.052Z,6.00
2023-01-04T20:47:55.821Z,6.00
2023-01-04T20:53:03.065Z,5.90
2023-01-04T20:58:12.157Z,5.80
2023-01-04T21:03:19.208Z,5.90
2023-01-04T21:08:26.363Z,5.90
2023-01-04T21:13:33.668Z,6.00
2023-01-04T21:18:40.480Z,6.10
2023-01-04T21:23:54.722Z,5.80
2023-01-04T21:28:58.689Z,5.90
2023-01-04T21:34:10.857Z,6.10
2023-01-04T21:39:13.861Z,6.20
2023-01-04T21:44:21.024Z,6.10
2023-01-04T21:49:28.175Z,6.10
2023-01-04T21:54:34.885Z,6.20
2023-01-04T21:59:41.815Z,6.20
2023-01-04T22:04:50.002Z,6.20
2023-01-04T22:09:57.754Z,6.20
2023-01-04T22:15:04.815Z,6.00
2023-01-04T22:20:12.734Z,6.20
2023-01-04T22:25:21.734Z,6.20
2023-01-04T22:30:28.661Z,6.20
2023-01-04T22:35:35.401Z,6.20
2023-01-04T22:40:43.472Z,6.30
2023-01-04T22:45:50.265Z,6.50
2023-01-04T22:50:57.252Z,6.50
2023-01-04T22:56:18.849Z,6.50
2023-01-04T23:01:18.096Z,6.50
2023-01-04T23:06:30.635Z,6.40
2023-01-04T23:11:39.474Z,6.40
2023-01-04T23:16:47.501Z,6.40
2023-01-04T23:21:54.250Z,6.50
2023-01-04T23:27:00.963Z,6.50
2023-01-04T23:32:08.195Z,6.50
2023-01-04T23:37:14.972Z,6.50
2023-01-04T23:42:21.959Z,6.60
2023-01-04T23:47:28.978Z,6.50
2023-01-04T23:52:35.781Z,6.40
2023-01-04T23:57:42.810Z,6.40
